Time;durP1;ratioP1;P1;durP2;ratioP2;P2;SDS_P1;SDS_P2;PMS_P1;PMS_P2;Temp;Humidity;BMP_temperature;BMP_pressure;BME280_temperature;BME280_humidity;BME280_pressure;Samples;Min_cycle;Max_cycle;Signal;HPM_P1;HPM_P2
2022/06/19 00:00:52;;;;;;;9.40;1.63;;;;;;;;;;5055923;28;20035;-75
2022/06/19 00:03:21;;;;;;;10.75;2.03;;;;;;;;;;5062105;28;20060;-79
2022/06/19 00:05:47;;;;;;;11.43;1.40;;;;;;;;;;5068211;28;20028;-75
2022/06/19 00:08:13;;;;;;;9.85;1.60;;;;;;;;;;5066909;28;20401;-74
2022/06/19 00:10:39;;;;;;;9.55;1.52;;;;;;;;;;5066485;28;20025;-74
2022/06/19 00:13:06;;;;;;;10.18;1.60;;;;;;;;;;5067380;28;20036;-73
2022/06/19 00:15:32;;;;;;;19.80;2.20;;;;;;;;;;5067785;28;20075;-73
2022/06/19 00:17:58;;;;;;;8.68;1.98;;;;;;;;;;5064194;28;20029;-73
2022/06/19 00:20:24;;;;;;;10.52;1.40;;;;;;;;;;5064038;28;20044;-73
2022/06/19 00:22:50;;;;;;;12.00;1.73;;;;;;;;;;5070466;28;20523;-74
2022/06/19 00:25:16;;;;;;;10.00;1.40;;;;;;;;;;5058820;28;20550;-74
2022/06/19 00:27:42;;;;;;;10.30;1.58;;;;;;;;;;5055538;28;20480;-76
2022/06/19 00:30:09;;;;;;;10.35;2.33;;;;;;;;;;5068695;28;20029;-74
2022/06/19 00:32:35;;;;;;;9.77;1.40;;;;;;;;;;5065897;28;20036;-75
2022/06/19 00:35:01;;;;;;;8.65;1.58;;;;;;;;;;5063356;28;20040;-73
2022/06/19 00:37:29;;;;;;;8.05;1.45;;;;;;;;;;5053138;28;20035;-74
2022/06/19 00:39:55;;;;;;;8.48;1.40;;;;;;;;;;5065555;28;20064;-73
2022/06/19 00:42:24;;;;;;;11.05;1.90;;;;;;;;;;5058786;28;20044;-74
2022/06/19 00:44:50;;;;;;;10.73;1.70;;;;;;;;;;5068040;28;20033;-73
2022/06/19 00:47:19;;;;;;;8.60;2.25;;;;;;;;;;5064739;28;20037;-75
2022/06/19 00:49:56;;;;;;;7.88;1.88;;;;;;;;;;5060409;28;20036;-73
2022/06/19 00:52:24;;;;;;;14.27;2.10;;;;;;;;;;5059317;28;20029;-73
2022/06/19 00:54:52;;;;;;;10.73;2.30;;;;;;;;;;5053770;28;20052;-74
2022/06/19 00:57:19;;;;;;;11.10;1.50;;;;;;;;;;5058615;28;20040;-74
2022/06/19 00:59:48;;;;;;;12.60;1.48;;;;;;;;;;5058415;28;20028;-74
2022/06/19 01:02:15;;;;;;;10.27;1.90;;;;;;;;;;5059659;28;20032;-80
2022/06/19 01:04:43;;;;;;;14.90;1.95;;;;;;;;;;5038732;28;20040;-74
2022/06/19 01:07:09;;;;;;;13.63;2.13;;;;;;;;;;5066230;28;20025;-79
2022/06/19 01:09:36;;;;;;;7.40;1.80;;;;;;;;;;5067992;28;20047;-76
2022/06/19 01:12:04;;;;;;;13.80;1.92;;;;;;;;;;5069204;28;20028;-75
2022/06/19 01:14:32;;;;;;;17.42;3.50;;;;;;;;;;5049851;28;20379;-74
2022/06/19 01:17:00;;;;;;;13.40;2.10;;;;;;;;;;5069134;28;20025;-74
2022/06/19 01:19:27;;;;;;;13.82;1.98;;;;;;;;;;5067767;28;20578;-73
2022/06/19 01:21:58;;;;;;;10.13;1.65;;;;;;;;;;5063846;28;20383;-74
2022/06/19 01:24:30;;;;;;;16.60;2.97;;;;;;;;;;5051003;28;20484;-73
2022/06/19 01:26:59;;;;;;;12.07;1.92;;;;;;;;;;5056762;28;20029;-74
2022/06/19 01:29:26;;;;;;;14.02;2.95;;;;;;;;;;5060594;28;20028;-74
2022/06/19 01:31:55;;;;;;;14.98;2.88;;;;;;;;;;5073102;28;20115;-74
2022/06/19 01:34:27;;;;;;;13.57;2.00;;;;;;;;;;5082578;28;20240;-75
2022/06/19 01:36:54;;;;;;;12.95;2.15;;;;;;;;;;5059723;28;20025;-75
2022/06/19 01:39:21;;;;;;;16.70;3.05;;;;;;;;;;5062037;28;20048;-75
2022/06/19 01:41:47;;;;;;;15.90;2.08;;;;;;;;;;5063806;28;20936;-76
2022/06/19 01:44:13;;;;;;;15.43;2.60;;;;;;;;;;5076124;28;20052;-76
2022/06/19 01:46:40;;;;;;;18.20;2.65;;;;;;;;;;5065225;28;20089;-74
2022/06/19 01:49:06;;;;;;;21.58;3.90;;;;;;;;;;5055667;28;20038;-73
2022/06/19 01:51:32;;;;;;;15.20;2.55;;;;;;;;;;5062253;28;20029;-74
2022/06/19 01:54:00;;;;;;;21.60;4.20;;;;;;;;;;5063125;28;20127;-73
2022/06/19 01:56:26;;;;;;;18.83;2.90;;;;;;;;;;5070854;28;20032;-73
2022/06/19 01:58:54;;;;;;;12.95;2.55;;;;;;;;;;5061373;28;20103;-74
2022/06/19 02:01:20;;;;;;;20.13;2.60;;;;;;;;;;5068809;28;20033;-74
2022/06/19 02:03:51;;;;;;;17.58;2.35;;;;;;;;;;5058582;28;20041;-74
2022/06/19 02:06:19;;;;;;;17.80;2.63;;;;;;;;;;5074027;28;20099;-74
2022/06/19 02:08:46;;;;;;;17.33;3.53;;;;;;;;;;5077045;28;20060;-73
2022/06/19 02:11:13;;;;;;;21.50;3.38;;;;;;;;;;5070469;28;20082;-74
2022/06/19 02:13:40;;;;;;;18.80;3.45;;;;;;;;;;5062065;28;20036;-74
2022/06/19 02:16:08;;;;;;;13.50;2.55;;;;;;;;;;5072115;28;20438;-75
2022/06/19 02:18:35;;;;;;;18.55;3.05;;;;;;;;;;5060911;28;20029;-74
2022/06/19 02:21:02;;;;;;;16.67;2.33;;;;;;;;;;5070398;28;20112;-73
2022/06/19 02:23:33;;;;;;;18.67;3.78;;;;;;;;;;5057343;28;20076;-73
2022/06/19 02:25:59;;;;;;;19.83;3.72;;;;;;;;;;5069579;28;20108;-74
2022/06/19 02:28:26;;;;;;;21.92;3.20;;;;;;;;;;5066533;28;20488;-73
2022/06/19 02:30:52;;;;;;;22.13;2.80;;;;;;;;;;5064745;28;20028;-75
2022/06/19 02:33:20;;;;;;;14.30;2.42;;;;;;;;;;5067961;28;20044;-74
2022/06/19 02:35:46;;;;;;;14.95;2.30;;;;;;;;;;5056047;28;20043;-74
2022/06/19 02:38:17;;;;;;;20.05;2.72;;;;;;;;;;5053815;28;20021;-73
2022/06/19 02:41:02;;;;;;;14.18;2.88;;;;;;;;;;5064389;28;20035;-73
2022/06/19 02:43:30;;;;;;;22.83;4.03;;;;;;;;;;5060765;28;20123;-73
2022/06/19 02:45:56;;;;;;;11.18;2.55;;;;;;;;;;5067603;28;20447;-74
2022/06/19 02:48:24;;;;;;;12.02;2.10;;;;;;;;;;5067379;28;20033;-73
2022/06/19 02:50:50;;;;;;;11.75;2.03;;;;;;;;;;5064037;28;20485;-80
2022/06/19 02:53:16;;;;;;;12.98;2.30;;;;;;;;;;5058875;28;20033;-74
2022/06/19 02:55:43;;;;;;;12.07;1.88;;;;;;;;;;5058468;28;20024;-73
2022/06/19 02:58:09;;;;;;;16.13;2.47;;;;;;;;;;5051842;28;20025;-77
2022/06/19 03:00:35;;;;;;;17.58;2.33;;;;;;;;;;5067453;28;20045;-77
2022/06/19 03:03:05;;;;;;;18.08;2.42;;;;;;;;;;5071039;28;20036;-75
2022/06/19 03:05:31;;;;;;;16.10;2.50;;;;;;;;;;5070809;28;20024;-76
2022/06/19 03:07:57;;;;;;;15.10;3.58;;;;;;;;;;5068373;28;20052;-72
2022/06/19 03:10:23;;;;;;;19.83;3.45;;;;;;;;;;5062895;28;20480;-71
2022/06/19 03:12:49;;;;;;;17.15;3.00;;;;;;;;;;5084665;28;20056;-72
2022/06/19 03:15:16;;;;;;;16.42;2.17;;;;;;;;;;5062547;28;20029;-74
2022/06/19 03:17:42;;;;;;;14.52;2.00;;;;;;;;;;5063041;28;20028;-76
2022/06/19 03:20:12;;;;;;;21.80;2.67;;;;;;;;;;5063241;28;20033;-74
2022/06/19 03:22:38;;;;;;;15.50;2.13;;;;;;;;;;5061693;28;20040;-73
2022/06/19 03:25:05;;;;;;;16.27;2.63;;;;;;;;;;5070338;28;20028;-73
2022/06/19 03:27:31;;;;;;;11.63;2.60;;;;;;;;;;5053340;28;20021;-75
2022/06/19 03:29:57;;;;;;;14.93;3.17;;;;;;;;;;5063314;28;20039;-76
2022/06/19 03:32:23;;;;;;;18.42;3.05;;;;;;;;;;5054896;28;20064;-72
2022/06/19 03:34:49;;;;;;;19.40;2.90;;;;;;;;;;5055382;28;20044;-72
2022/06/19 03:37:15;;;;;;;14.75;2.85;;;;;;;;;;5052245;28;20104;-72
2022/06/19 03:39:41;;;;;;;18.65;2.53;;;;;;;;;;5050401;28;20448;-72
2022/06/19 03:42:08;;;;;;;23.73;3.65;;;;;;;;;;5067818;28;20040;-73
2022/06/19 03:44:34;;;;;;;25.23;2.75;;;;;;;;;;5064249;28;20446;-74
2022/06/19 03:47:00;;;;;;;17.50;2.95;;;;;;;;;;5066247;28;20029;-74
2022/06/19 03:49:27;;;;;;;29.77;4.70;;;;;;;;;;5070297;28;20483;-75
2022/06/19 03:51:53;;;;;;;23.13;3.30;;;;;;;;;;5067433;28;20424;-76
2022/06/19 03:54:19;;;;;;;15.88;3.28;;;;;;;;;;5056325;28;20040;-73
2022/06/19 03:56:45;;;;;;;17.05;3.78;;;;;;;;;;5058073;28;20029;-73
2022/06/19 03:59:15;;;;;;;26.33;3.67;;;;;;;;;;5054108;28;20039;-73
2022/06/19 04:01:41;;;;;;;15.85;3.20;;;;;;;;;;5064121;28;20032;-74
2022/06/19 04:04:08;;;;;;;27.10;2.88;;;;;;;;;;5059678;28;20087;-73
2022/06/19 04:06:37;;;;;;;21.45;3.08;;;;;;;;;;5053686;28;20025;-73
2022/06/19 04:09:04;;;;;;;18.27;2.53;;;;;;;;;;5056979;28;20040;-75
2022/06/19 04:11:30;;;;;;;24.00;3.97;;;;;;;;;;5058693;28;20029;-75
2022/06/19 04:13:57;;;;;;;23.30;2.78;;;;;;;;;;5051647;28;20116;-73
2022/06/19 04:16:28;;;;;;;15.70;2.75;;;;;;;;;;5056488;28;20178;-73
2022/06/19 04:18:55;;;;;;;18.15;3.15;;;;;;;;;;5055050;28;20087;-75
2022/06/19 04:21:22;;;;;;;20.80;3.08;;;;;;;;;;5060464;28;20035;-73
2022/06/19 04:23:50;;;;;;;20.02;3.05;;;;;;;;;;5071688;28;20056;-74
2022/06/19 04:26:16;;;;;;;13.05;2.63;;;;;;;;;;5061967;28;20051;-74
2022/06/19 04:28:43;;;;;;;19.27;3.90;;;;;;;;;;5050466;28;20044;-74
2022/06/19 04:31:09;;;;;;;18.77;2.33;;;;;;;;;;5068936;28;20107;-76
2022/06/19 04:33:38;;;;;;;18.15;2.88;;;;;;;;;;5075255;28;20028;-74
2022/06/19 04:36:12;;;;;;;16.75;2.95;;;;;;;;;;5079142;28;20428;-74
2022/06/19 04:38:39;;;;;;;15.65;2.95;;;;;;;;;;5064885;28;20154;-75
2022/06/19 04:41:05;;;;;;;17.67;2.28;;;;;;;;;;5056097;28;20037;-75
2022/06/19 04:43:31;;;;;;;17.52;2.85;;;;;;;;;;5062951;28;20044;-74
2022/06/19 04:46:04;;;;;;;18.77;2.00;;;;;;;;;;5056605;28;20021;-75
2022/06/19 04:48:31;;;;;;;17.90;2.83;;;;;;;;;;5055727;28;20379;-74
2022/06/19 04:50:57;;;;;;;17.83;3.05;;;;;;;;;;5059962;28;20079;-76
2022/06/19 04:53:23;;;;;;;17.83;2.05;;;;;;;;;;5053970;28;20433;-74
2022/06/19 04:55:49;;;;;;;27.02;3.55;;;;;;;;;;5067558;28;20033;-74
2022/06/19 04:58:15;;;;;;;20.85;3.08;;;;;;;;;;5063477;28;20052;-78
2022/06/19 05:00:41;;;;;;;15.32;3.03;;;;;;;;;;5067303;28;20040;-75
2022/06/19 05:03:07;;;;;;;17.83;2.45;;;;;;;;;;5057672;28;20029;-75
2022/06/19 05:05:34;;;;;;;15.32;4.07;;;;;;;;;;5059181;28;20111;-76
2022/06/19 05:08:00;;;;;;;13.82;2.25;;;;;;;;;;5063646;28;20038;-75
2022/06/19 05:10:26;;;;;;;14.55;2.60;;;;;;;;;;5072830;28;20345;-77
2022/06/19 05:12:58;;;;;;;16.10;2.28;;;;;;;;;;5055078;28;20037;-74
2022/06/19 05:15:24;;;;;;;15.13;2.53;;;;;;;;;;5068847;28;20127;-72
2022/06/19 05:17:51;;;;;;;16.13;2.67;;;;;;;;;;5072377;28;20387;-76
2022/06/19 05:20:17;;;;;;;11.57;2.58;;;;;;;;;;5054971;28;20043;-75
2022/06/19 05:22:43;;;;;;;14.23;2.75;;;;;;;;;;5068185;28;20044;-75
2022/06/19 05:25:10;;;;;;;15.70;2.42;;;;;;;;;;5062033;28;20036;-74
2022/06/19 05:27:40;;;;;;;12.90;1.88;;;;;;;;;;5054789;28;20367;-74
2022/06/19 05:30:08;;;;;;;11.68;2.00;;;;;;;;;;5054149;28;20027;-74
2022/06/19 05:32:34;;;;;;;12.82;1.88;;;;;;;;;;5064282;28;20376;-74
2022/06/19 05:35:00;;;;;;;12.15;1.77;;;;;;;;;;5070476;28;20435;-74
2022/06/19 05:37:26;;;;;;;14.52;2.55;;;;;;;;;;5065413;28;20056;-75
2022/06/19 05:39:52;;;;;;;15.10;2.03;;;;;;;;;;5066456;28;20074;-74
2022/06/19 05:42:18;;;;;;;21.88;2.90;;;;;;;;;;5068097;28;20077;-76
2022/06/19 05:44:44;;;;;;;14.55;2.25;;;;;;;;;;5058823;28;20091;-78
2022/06/19 05:47:11;;;;;;;20.15;2.70;;;;;;;;;;5064881;28;20085;-75
2022/06/19 05:49:37;;;;;;;22.17;2.70;;;;;;;;;;5053988;28;20037;-72
2022/06/19 05:52:04;;;;;;;23.02;2.67;;;;;;;;;;5056036;28;20096;-72
2022/06/19 05:54:30;;;;;;;17.17;2.05;;;;;;;;;;5065838;28;20032;-72
2022/06/19 05:56:56;;;;;;;17.98;3.05;;;;;;;;;;5069198;28;20029;-73
2022/06/19 05:59:22;;;;;;;24.13;3.60;;;;;;;;;;5065223;28;20020;-73
2022/06/19 06:01:49;;;;;;;13.43;1.70;;;;;;;;;;5075561;28;20104;-74
2022/06/19 06:04:15;;;;;;;17.58;2.55;;;;;;;;;;5063200;28;20033;-73
2022/06/19 06:06:41;;;;;;;18.33;2.22;;;;;;;;;;5064120;28;20100;-74
2022/06/19 06:09:07;;;;;;;17.60;2.13;;;;;;;;;;5053768;28;20029;-73
2022/06/19 06:11:33;;;;;;;15.63;2.25;;;;;;;;;;5062672;28;20032;-73
2022/06/19 06:14:00;;;;;;;19.10;3.17;;;;;;;;;;5065595;28;20041;-73
2022/06/19 06:16:26;;;;;;;18.70;1.77;;;;;;;;;;5066462;28;20036;-72
2022/06/19 06:18:52;;;;;;;13.05;1.70;;;;;;;;;;5056887;28;20121;-73
2022/06/19 06:21:20;;;;;;;14.63;1.85;;;;;;;;;;5065563;28;20430;-73
2022/06/19 06:23:47;;;;;;;14.77;1.52;;;;;;;;;;5071939;28;20044;-73
2022/06/19 06:26:15;;;;;;;12.25;1.63;;;;;;;;;;5068158;28;20418;-72
2022/06/19 06:28:42;;;;;;;13.65;2.20;;;;;;;;;;5063863;28;20028;-72
2022/06/19 06:31:08;;;;;;;9.43;1.73;;;;;;;;;;5057629;28;20104;-77
2022/06/19 06:33:34;;;;;;;11.90;1.75;;;;;;;;;;5063974;28;20563;-76
2022/06/19 06:36:00;;;;;;;15.70;1.70;;;;;;;;;;5060966;28;20071;-76
2022/06/19 06:38:28;;;;;;;14.93;1.50;;;;;;;;;;5063542;28;20041;-77
2022/06/19 06:40:54;;;;;;;13.10;1.85;;;;;;;;;;5056403;28;20037;-77
2022/06/19 06:43:20;;;;;;;65.18;36.58;;;;;;;;;;5061224;28;20436;-77
2022/06/19 06:45:48;;;;;;;15.18;3.08;;;;;;;;;;5055283;28;20036;-79
2022/06/19 06:48:14;;;;;;;15.60;3.05;;;;;;;;;;5064393;28;20451;-77
2022/06/19 06:50:41;;;;;;;10.90;1.55;;;;;;;;;;5052410;28;20025;-75
2022/06/19 06:53:09;;;;;;;15.25;2.42;;;;;;;;;;5058661;28;20479;-75
2022/06/19 06:55:42;;;;;;;11.73;2.05;;;;;;;;;;5079820;28;20402;-78
2022/06/19 06:58:08;;;;;;;17.05;2.63;;;;;;;;;;5068998;28;20354;-76
2022/06/19 07:00:35;;;;;;;10.10;2.20;;;;;;;;;;5065599;28;20526;-78
2022/06/19 07:03:01;;;;;;;11.55;1.52;;;;;;;;;;5059358;28;20082;-77
2022/06/19 07:05:27;;;;;;;8.80;1.60;;;;;;;;;;5062518;28;20085;-77
2022/06/19 07:07:53;;;;;;;7.75;1.15;;;;;;;;;;5068115;28;20025;-78
2022/06/19 07:10:19;;;;;;;16.48;2.65;;;;;;;;;;5058933;28;20029;-78
2022/06/19 07:12:46;;;;;;;13.38;3.35;;;;;;;;;;5062198;28;20468;-77
2022/06/19 07:15:12;;;;;;;14.15;2.15;;;;;;;;;;5057880;28;20039;-77
2022/06/19 07:17:38;;;;;;;17.88;1.88;;;;;;;;;;5066756;28;20071;-80
2022/06/19 07:20:05;;;;;;;16.98;3.20;;;;;;;;;;5060871;28;20834;-76
2022/06/19 07:22:31;;;;;;;10.63;2.00;;;;;;;;;;5063283;28;21098;-76
2022/06/19 07:24:57;;;;;;;14.10;2.08;;;;;;;;;;5057082;28;20029;-75
2022/06/19 07:27:24;;;;;;;18.70;3.75;;;;;;;;;;5066638;28;20059;-76
2022/06/19 07:29:50;;;;;;;11.52;2.60;;;;;;;;;;5068153;28;20051;-77
2022/06/19 07:32:16;;;;;;;11.88;2.10;;;;;;;;;;5054312;28;20037;-77
2022/06/19 07:34:46;;;;;;;11.32;2.42;;;;;;;;;;5062890;28;20039;-76
2022/06/19 07:37:16;;;;;;;13.90;2.30;;;;;;;;;;5085626;28;20037;-76
2022/06/19 07:39:42;;;;;;;16.13;3.90;;;;;;;;;;5073858;28;20032;-75
2022/06/19 07:42:09;;;;;;;9.30;1.63;;;;;;;;;;5062837;28;20079;-75
2022/06/19 07:44:36;;;;;;;18.65;2.53;;;;;;;;;;5059479;28;20645;-76
2022/06/19 07:52:33;;;;;;;14.27;1.70;;;;;;;;;;5046703;28;20117;-75
2022/06/19 07:54:59;;;;;;;7.90;1.20;;;;;;;;;;5061783;28;20033;-76
2022/06/19 07:57:26;;;;;;;8.63;1.55;;;;;;;;;;5056751;28;20061;-75
2022/06/19 07:59:52;;;;;;;15.10;2.45;;;;;;;;;;5062948;28;20476;-74
2022/06/19 08:02:18;;;;;;;15.90;2.33;;;;;;;;;;5061030;28;20028;-73
2022/06/19 08:04:44;;;;;;;13.85;1.90;;;;;;;;;;5055935;28;20033;-74
2022/06/19 08:07:14;;;;;;;11.15;1.85;;;;;;;;;;5060953;28;20025;-74
2022/06/19 08:09:41;;;;;;;15.73;1.90;;;;;;;;;;5058683;28;20043;-75
2022/06/19 08:12:07;;;;;;;9.80;1.95;;;;;;;;;;5060587;28;20433;-75
2022/06/19 08:14:33;;;;;;;10.27;1.85;;;;;;;;;;5062325;28;20369;-75
2022/06/19 08:16:59;;;;;;;12.73;2.08;;;;;;;;;;5062586;28;20109;-75
2022/06/19 08:19:26;;;;;;;11.73;1.67;;;;;;;;;;5045172;28;20036;-73
2022/06/19 08:21:52;;;;;;;14.32;3.83;;;;;;;;;;5069576;28;20483;-73
2022/06/19 08:24:18;;;;;;;29.45;14.48;;;;;;;;;;5064017;28;20484;-73
2022/06/19 08:26:44;;;;;;;9.75;1.58;;;;;;;;;;5064390;28;20033;-75
2022/06/19 08:29:10;;;;;;;13.32;1.75;;;;;;;;;;5064381;28;20025;-73
2022/06/19 08:31:36;;;;;;;13.20;2.00;;;;;;;;;;5060424;28;20070;-73
2022/06/19 08:34:03;;;;;;;12.60;1.50;;;;;;;;;;5055176;28;20016;-75
2022/06/19 08:36:30;;;;;;;10.10;2.08;;;;;;;;;;5063640;28;20033;-75
2022/06/19 08:38:58;;;;;;;13.40;1.65;;;;;;;;;;5060564;28;20059;-75
2022/06/19 08:41:30;;;;;;;8.35;1.30;;;;;;;;;;5062480;28;20454;-75
2022/06/19 08:43:59;;;;;;;14.48;1.83;;;;;;;;;;5067116;28;20068;-74
2022/06/19 08:46:35;;;;;;;8.82;1.25;;;;;;;;;;5065406;28;20029;-75
2022/06/19 08:49:20;;;;;;;8.95;1.55;;;;;;;;;;5059327;28;20533;-75
2022/06/19 08:51:49;;;;;;;6.72;1.27;;;;;;;;;;5062241;28;20059;-74
2022/06/19 08:54:26;;;;;;;4.45;1.10;;;;;;;;;;5073591;28;20056;-75
2022/06/19 08:57:01;;;;;;;6.97;1.10;;;;;;;;;;5065564;28;20032;-75
2022/06/19 08:59:45;;;;;;;7.68;1.52;;;;;;;;;;5063099;28;20036;-75
2022/06/19 09:02:14;;;;;;;10.43;3.72;;;;;;;;;;5065100;28;20039;-75
2022/06/19 09:07:44;;;;;;;8.55;1.17;;;;;;;;;;5067743;28;20047;-76
2022/06/19 09:10:18;;;;;;;6.63;0.90;;;;;;;;;;5084926;28;20400;-75
2022/06/19 09:12:53;;;;;;;8.60;1.20;;;;;;;;;;5099943;28;20024;-75
2022/06/19 09:15:30;;;;;;;7.60;1.40;;;;;;;;;;5084535;28;20033;-76
2022/06/19 09:18:04;;;;;;;9.13;1.33;;;;;;;;;;5087432;28;20024;-74
2022/06/19 09:20:40;;;;;;;9.48;1.23;;;;;;;;;;5086873;28;20368;-75
2022/06/19 09:23:06;;;;;;;8.70;2.60;;;;;;;;;;5076200;28;20493;-74
2022/06/19 09:25:32;;;;;;;3.72;1.00;;;;;;;;;;5057792;28;20040;-76
2022/06/19 09:28:01;;;;;;;5.43;1.15;;;;;;;;;;5094529;28;20029;-74
2022/06/19 09:30:34;;;;;;;8.25;1.50;;;;;;;;;;5058222;28;20056;-74
2022/06/19 09:33:01;;;;;;;7.30;1.15;;;;;;;;;;5070567;28;20028;-76
2022/06/19 09:35:33;;;;;;;8.15;1.10;;;;;;;;;;5085478;28;20033;-76
2022/06/19 09:38:01;;;;;;;11.88;1.98;;;;;;;;;;5079038;28;20028;-75
2022/06/19 09:40:33;;;;;;;3.17;0.68;;;;;;;;;;5101935;28;20062;-75
2022/06/19 09:43:05;;;;;;;5.93;1.10;;;;;;;;;;5077555;28;20418;-75
2022/06/19 09:45:31;;;;;;;;;;;;;;;;;;5077370;28;20463;-75
2022/06/19 09:48:01;;;;;;;7.47;1.17;;;;;;;;;;5075002;28;19974;-75
2022/06/19 09:50:33;;;;;;;7.07;1.17;;;;;;;;;;5081073;28;20023;-76
2022/06/19 09:53:05;;;;;;;7.68;1.75;;;;;;;;;;5085848;28;20491;-76
2022/06/19 09:55:33;;;;;;;7.18;1.38;;;;;;;;;;5083822;28;20409;-74
2022/06/19 09:58:05;;;;;;;6.28;0.98;;;;;;;;;;5102430;28;20028;-76
2022/06/19 10:00:33;;;;;;;8.32;0.93;;;;;;;;;;5083498;28;20026;-76
2022/06/19 10:03:19;;;;;;;4.38;1.02;;;;;;;;;;5093560;28;20020;-78
2022/06/19 10:05:48;;;;;;;6.25;0.65;;;;;;;;;;5072832;28;20079;-77
2022/06/19 10:08:21;;;;;;;5.47;1.15;;;;;;;;;;5085904;28;20035;-78
2022/06/19 10:10:55;;;;;;;4.45;1.00;;;;;;;;;;5073979;28;20029;-77
2022/06/19 10:13:34;;;;;;;5.53;0.90;;;;;;;;;;5084386;28;20447;-76
2022/06/19 10:16:02;;;;;;;20.77;11.15;;;;;;;;;;5099310;28;20035;-76
2022/06/19 10:18:33;;;;;;;16.52;7.85;;;;;;;;;;5091058;28;20032;-76
2022/06/19 10:21:05;;;;;;;9.80;2.38;;;;;;;;;;5088334;28;20062;-76
2022/06/19 10:23:43;;;;;;;3.45;0.85;;;;;;;;;;5080361;28;20376;-75
2022/06/19 10:26:15;;;;;;;4.68;1.13;;;;;;;;;;5078015;28;20036;-76
2022/06/19 10:28:59;;;;;;;2.50;1.13;;;;;;;;;;5071656;28;20028;-79
2022/06/19 10:31:25;;;;;;;1.92;0.40;;;;;;;;;;5074553;28;20052;-76
2022/06/19 10:34:11;;;;;;;2.70;0.93;;;;;;;;;;5097901;28;20036;-75
2022/06/19 10:36:37;;;;;;;3.67;0.80;;;;;;;;;;5082522;28;20029;-75
2022/06/19 10:39:09;;;;;;;4.15;0.70;;;;;;;;;;5082820;28;20046;-74
2022/06/19 10:44:50;;;;;;;1.83;0.50;;;;;;;;;;5084622;28;20122;-74
2022/06/19 10:47:16;;;;;;;2.22;0.70;;;;;;;;;;5078933;28;20480;-74
2022/06/19 10:49:51;;;;;;;2.28;0.60;;;;;;;;;;5086352;28;20027;-78
2022/06/19 10:52:26;;;;;;;4.50;0.95;;;;;;;;;;5089116;28;20411;-75
2022/06/19 10:55:03;;;;;;;3.05;0.60;;;;;;;;;;5091276;28;20538;-74
2022/06/19 10:57:38;;;;;;;5.55;1.00;;;;;;;;;;5083471;28;20038;-75
2022/06/19 11:00:05;;;;;;;3.05;0.80;;;;;;;;;;5085970;28;20028;-75
2022/06/19 11:05:29;;;;;;;6.35;0.90;;;;;;;;;;5082001;28;20090;-76
2022/06/19 11:07:55;;;;;;;6.15;1.17;;;;;;;;;;5091240;28;20062;-75
2022/06/19 11:10:40;;;;;;;7.80;1.15;;;;;;;;;;5083145;28;20029;-76
2022/06/19 11:13:06;;;;;;;5.90;1.08;;;;;;;;;;5076767;28;20039;-75
2022/06/19 11:15:34;;;;;;;7.25;1.25;;;;;;;;;;5086034;28;20016;-73
2022/06/19 11:18:11;;;;;;;6.68;1.15;;;;;;;;;;5081470;28;20020;-74
2022/06/19 11:20:38;;;;;;;4.85;1.10;;;;;;;;;;5076617;28;20020;-75
2022/06/19 11:23:22;;;;;;;10.18;1.70;;;;;;;;;;5085222;28;20075;-76
2022/06/19 11:26:00;;;;;;;7.53;2.17;;;;;;;;;;5086899;28;20886;-77
2022/06/19 11:28:39;;;;;;;3.95;1.08;;;;;;;;;;5083113;28;20035;-74
2022/06/19 11:31:10;;;;;;;4.57;0.85;;;;;;;;;;5074776;28;20107;-75
2022/06/19 11:33:37;;;;;;;4.78;1.05;;;;;;;;;;5083055;28;20032;-74
2022/06/19 11:36:08;;;;;;;6.78;1.10;;;;;;;;;;5074036;28;20108;-74
2022/06/19 11:38:42;;;;;;;4.88;1.05;;;;;;;;;;5085976;28;20069;-75
2022/06/19 11:41:15;;;;;;;7.30;1.10;;;;;;;;;;5077560;28;20035;-75
2022/06/19 11:43:41;;;;;;;11.43;1.67;;;;;;;;;;5072222;28;20617;-75
2022/06/19 11:46:15;;;;;;;3.35;1.00;;;;;;;;;;5081707;28;20104;-74
2022/06/19 11:48:42;;;;;;;4.57;0.95;;;;;;;;;;5084791;28;20093;-74
2022/06/19 11:51:24;;;;;;;4.38;1.02;;;;;;;;;;5074574;28;20047;-75
2022/06/19 11:53:50;;;;;;;;;;;;;;;;;;5082380;28;20070;-76
2022/06/19 11:56:16;;;;;;;7.88;2.88;;;;;;;;;;5084660;28;19944;-74
2022/06/19 11:58:44;;;;;;;4.53;0.90;;;;;;;;;;5096668;28;20111;-76
2022/06/19 12:01:21;;;;;;;5.57;1.05;;;;;;;;;;5081251;28;20029;-75
2022/06/19 12:03:55;;;;;;;4.93;1.00;;;;;;;;;;5078648;28;20056;-76
2022/06/19 12:06:37;;;;;;;9.32;1.67;;;;;;;;;;5075075;28;20126;-75
2022/06/19 12:09:04;;;;;;;4.35;1.42;;;;;;;;;;5085648;28;20032;-76
2022/06/19 12:11:43;;;;;;;3.30;0.80;;;;;;;;;;5091085;28;20668;-76
2022/06/19 12:14:10;;;;;;;4.15;1.00;;;;;;;;;;5080629;28;20032;-75
2022/06/19 12:16:37;;;;;;;4.28;1.15;;;;;;;;;;5116928;27;20024;-75
2022/06/19 12:19:14;;;;;;;7.32;0.90;;;;;;;;;;5087998;28;20060;-75
2022/06/19 12:21:47;;;;;;;15.73;8.43;;;;;;;;;;5088110;28;20031;-77
2022/06/19 12:24:15;;;;;;;22.17;9.77;;;;;;;;;;5079638;28;20047;-78
2022/06/19 12:26:45;;;;;;;6.50;1.27;;;;;;;;;;5050112;28;20442;-74
2022/06/19 12:29:19;;;;;;;5.72;0.82;;;;;;;;;;5077958;28;20028;-74
2022/06/19 12:31:46;;;;;;;5.70;1.00;;;;;;;;;;5085259;28;20021;-74
2022/06/19 12:34:12;;;;;;;6.93;1.67;;;;;;;;;;5079735;28;20468;-73
2022/06/19 12:36:38;;;;;;;5.38;1.70;;;;;;;;;;5085903;28;20131;-74
2022/06/19 12:39:06;;;;;;;5.50;1.10;;;;;;;;;;5090541;28;20024;-74
2022/06/19 12:41:38;;;;;;;5.35;1.38;;;;;;;;;;5077668;28;20039;-73
2022/06/19 12:44:12;;;;;;;5.72;1.10;;;;;;;;;;5082631;28;20035;-75
2022/06/19 12:46:50;;;;;;;6.28;1.15;;;;;;;;;;5094480;28;20040;-73
2022/06/19 12:49:34;;;;;;;5.13;1.17;;;;;;;;;;5078986;28;20028;-76
2022/06/19 12:52:11;;;;;;;5.22;1.75;;;;;;;;;;5080084;28;20392;-75
2022/06/19 12:54:40;;;;;;;6.03;1.23;;;;;;;;;;5075668;28;20373;-78
2022/06/19 12:57:25;;;;;;;5.55;1.20;;;;;;;;;;5082450;28;20021;-72
2022/06/19 12:59:54;;;;;;;3.88;1.35;;;;;;;;;;5082069;28;20115;-74
2022/06/19 13:02:34;;;;;;;4.80;1.23;;;;;;;;;;5085069;28;20488;-72
2022/06/19 13:05:06;;;;;;;6.55;1.05;;;;;;;;;;5077375;28;20490;-73
2022/06/19 13:07:50;;;;;;;8.05;2.00;;;;;;;;;;5070836;28;20116;-75
2022/06/19 13:10:31;;;;;;;5.07;1.48;;;;;;;;;;5080967;28;20380;-74
2022/06/19 13:13:15;;;;;;;6.43;1.25;;;;;;;;;;5062273;28;20040;-72
2022/06/19 13:15:55;;;;;;;6.78;1.27;;;;;;;;;;5084073;28;20093;-79
2022/06/19 13:18:30;;;;;;;9.50;1.60;;;;;;;;;;5104845;28;20058;-71
2022/06/19 13:21:00;;;;;;;10.40;2.08;;;;;;;;;;5086311;28;20024;-72
2022/06/19 13:23:32;;;;;;;8.95;2.78;;;;;;;;;;5093654;28;20391;-74
2022/06/19 13:26:10;;;;;;;6.45;1.15;;;;;;;;;;5086761;28;20024;-72
2022/06/19 13:29:16;;;;;;;6.07;1.20;;;;;;;;;;5101553;28;20032;-73
2022/06/19 13:31:48;;;;;;;8.05;1.80;;;;;;;;;;5084229;28;20033;-73
2022/06/19 13:34:14;;;;;;;;;;;;;;;;;;5091747;28;20099;-73
2022/06/19 13:36:43;;;;;;;5.55;1.23;;;;;;;;;;5077554;28;20422;-73
2022/06/19 13:39:22;;;;;;;4.60;0.93;;;;;;;;;;5099979;28;20499;-74
2022/06/19 13:42:07;;;;;;;8.80;1.52;;;;;;;;;;5095929;28;20036;-72
2022/06/19 13:44:53;;;;;;;9.80;2.65;;;;;;;;;;5087584;28;20036;-73
2022/06/19 13:47:33;;;;;;;8.13;1.92;;;;;;;;;;5071333;28;20075;-75
2022/06/19 13:50:02;;;;;;;6.15;1.10;;;;;;;;;;5090691;28;20028;-74
2022/06/19 13:52:28;;;;;;;11.07;1.30;;;;;;;;;;5080614;28;20028;-75
2022/06/19 13:55:17;;;;;;;9.98;2.00;;;;;;;;;;5090219;28;20032;-75
2022/06/19 13:57:48;;;;;;;10.70;1.67;;;;;;;;;;5065531;28;20051;-75
2022/06/19 14:00:29;;;;;;;7.68;2.60;;;;;;;;;;5085439;28;20029;-77
2022/06/19 14:03:16;;;;;;;7.97;1.80;;;;;;;;;;5086303;28;20103;-76
2022/06/19 14:05:43;;;;;;;7.38;1.45;;;;;;;;;;5081050;28;20040;-76
2022/06/19 14:08:18;;;;;;;7.20;1.60;;;;;;;;;;5073969;28;20392;-74
2022/06/19 14:10:48;;;;;;;7.60;1.55;;;;;;;;;;5085656;28;20384;-75
2022/06/19 14:13:29;;;;;;;7.30;2.28;;;;;;;;;;5078654;28;20539;-75
2022/06/19 14:15:55;;;;;;;12.85;1.70;;;;;;;;;;5090905;28;20381;-78
2022/06/19 14:18:26;;;;;;;7.55;1.50;;;;;;;;;;5091936;28;20027;-76
2022/06/19 14:20:58;;;;;;;5.90;1.20;;;;;;;;;;5080974;28;20418;-74
2022/06/19 14:23:37;;;;;;;10.15;2.08;;;;;;;;;;5073215;28;20110;-75
2022/06/19 14:26:21;;;;;;;10.52;1.98;;;;;;;;;;5089385;28;20111;-75
2022/06/19 14:29:06;;;;;;;8.13;2.03;;;;;;;;;;5090981;28;20016;-75
2022/06/19 14:31:32;;;;;;;5.95;1.60;;;;;;;;;;5081879;28;20047;-76
2022/06/19 14:33:58;;;;;;;8.45;1.38;;;;;;;;;;5089817;28;20094;-76
2022/06/19 14:36:25;;;;;;;8.68;2.30;;;;;;;;;;5089074;28;20483;-76
2022/06/19 14:38:56;;;;;;;11.30;2.15;;;;;;;;;;5058081;28;20035;-76
2022/06/19 14:41:39;;;;;;;10.50;2.33;;;;;;;;;;5079730;28;20534;-77
2022/06/19 14:44:05;;;;;;;;;;;;;;;;;;5085758;28;20111;-74
2022/06/19 14:46:31;;;;;;;8.20;1.67;;;;;;;;;;5083977;28;19920;-76
2022/06/19 14:49:16;;;;;;;9.50;1.40;;;;;;;;;;5057628;28;20423;-74
2022/06/19 14:51:51;;;;;;;6.57;1.58;;;;;;;;;;5075357;28;20034;-75
2022/06/19 14:54:33;;;;;;;8.30;1.80;;;;;;;;;;5088883;28;20107;-74
2022/06/19 14:56:59;;;;;;;;;;;;;;;;;;5075493;28;20036;-75
2022/06/19 14:59:25;;;;;;;10.82;1.58;;;;;;;;;;5075902;28;19941;-74
2022/06/19 15:01:52;;;;;;;7.80;2.00;;;;;;;;;;5086621;28;20024;-74
2022/06/19 15:04:21;;;;;;;11.18;2.40;;;;;;;;;;5073864;28;20123;-74